sensor_id;sensor_type;location;lat;lon;timestamp;pressure;altitude;pressure_sealevel;temperature;humidity
4981;BME280;2507;50.392;7.482;2023-10-19T00:00:48;98864.00;;;14.31;77.77
4981;BME280;2507;50.392;7.482;2023-10-19T00:03:16;98857.59;;;14.26;77.37
4981;BME280;2507;50.392;7.482;2023-10-19T00:05:41;98847.13;;;14.41;77.09
4981;BME280;2507;50.392;7.482;2023-10-19T00:08:07;98849.25;;;14.45;76.41
4981;BME280;2507;50.392;7.482;2023-10-19T00:10:38;98838.78;;;14.52;76.39
4981;BME280;2507;50.392;7.482;2023-10-19T00:13:04;98850.88;;;14.46;76.86
4981;BME280;2507;50.392;7.482;2023-10-19T00:15:32;98849.59;;;14.42;76.81
4981;BME280;2507;50.392;7.482;2023-10-19T00:17:59;98850.13;;;14.38;77.48
4981;BME280;2507;50.392;7.482;2023-10-19T00:20:32;98847.47;;;14.38;77.73
4981;BME280;2507;50.392;7.482;2023-10-19T00:23:06;98851.06;;;14.45;77.49
4981;BME280;2507;50.392;7.482;2023-10-19T00:25:32;98840.91;;;14.56;77.08
4981;BME280;2507;50.392;7.482;2023-10-19T00:28:00;98840.31;;;14.69;76.68
4981;BME280;2507;50.392;7.482;2023-10-19T00:30:27;98830.97;;;14.81;75.53
4981;BME280;2507;50.392;7.482;2023-10-19T00:32:56;98833.03;;;14.71;76.03
4981;BME280;2507;50.392;7.482;2023-10-19T00:35:22;98836.94;;;14.75;76.18
4981;BME280;2507;50.392;7.482;2023-10-19T00:38:00;98834.25;;;14.60;76.46
4981;BME280;2507;50.392;7.482;2023-10-19T00:40:43;98830.22;;;14.50;76.97
4981;BME280;2507;50.392;7.482;2023-10-19T00:43:12;98840.56;;;14.06;79.77
4981;BME280;2507;50.392;7.482;2023-10-19T00:45:38;98842.69;;;13.80;82.16
4981;BME280;2507;50.392;7.482;2023-10-19T00:48:07;98839.97;;;13.65;83.61
4981;BME280;2507;50.392;7.482;2023-10-19T00:50:33;98845.94;;;13.82;84.37
4981;BME280;2507;50.392;7.482;2023-10-19T00:53:01;98844.22;;;13.97;83.12
4981;BME280;2507;50.392;7.482;2023-10-19T00:55:29;98839.91;;;14.04;82.67
4981;BME280;2507;50.392;7.482;2023-10-19T00:57:55;98843.81;;;14.16;82.46
4981;BME280;2507;50.392;7.482;2023-10-19T01:00:22;98823.81;;;14.21;81.91
4981;BME280;2507;50.392;7.482;2023-10-19T01:02:57;98828.53;;;14.34;82.09
4981;BME280;2507;50.392;7.482;2023-10-19T01:05:26;98839.13;;;14.26;81.33
4981;BME280;2507;50.392;7.482;2023-10-19T01:07:57;98840.22;;;14.09;82.57
4981;BME280;2507;50.392;7.482;2023-10-19T01:10:23;98827.97;;;14.16;83.35
4981;BME280;2507;50.392;7.482;2023-10-19T01:12:49;98839.03;;;14.42;81.42
4981;BME280;2507;50.392;7.482;2023-10-19T01:15:18;98833.84;;;14.26;81.31
4981;BME280;2507;50.392;7.482;2023-10-19T01:17:54;98837.22;;;14.12;83.05
4981;BME280;2507;50.392;7.482;2023-10-19T01:20:24;98823.78;;;14.29;83.07
4981;BME280;2507;50.392;7.482;2023-10-19T01:22:57;98812.44;;;14.44;82.24
4981;BME280;2507;50.392;7.482;2023-10-19T01:28:07;98813.38;;;14.73;79.82
4981;BME280;2507;50.392;7.482;2023-10-19T01:30:33;98817.50;;;14.53;79.89
4981;BME280;2507;50.392;7.482;2023-10-19T01:32:59;98806.00;;;14.23;81.65
4981;BME280;2507;50.392;7.482;2023-10-19T01:35:24;98816.25;;;14.18;82.72
4981;BME280;2507;50.392;7.482;2023-10-19T01:37:50;98812.38;;;14.06;83.66
4981;BME280;2507;50.392;7.482;2023-10-19T01:40:15;98814.06;;;13.99;84.74
4981;BME280;2507;50.392;7.482;2023-10-19T01:42:45;98817.09;;;14.11;84.25
4981;BME280;2507;50.392;7.482;2023-10-19T01:45:10;98810.16;;;14.18;83.97
4981;BME280;2507;50.392;7.482;2023-10-19T01:47:36;98812.91;;;14.24;83.67
4981;BME280;2507;50.392;7.482;2023-10-19T01:50:02;98803.31;;;14.31;83.17
4981;BME280;2507;50.392;7.482;2023-10-19T01:52:28;98794.88;;;14.36;83.12
4981;BME280;2507;50.392;7.482;2023-10-19T01:54:53;98801.31;;;14.56;81.74
4981;BME280;2507;50.392;7.482;2023-10-19T01:57:25;98804.66;;;14.50;81.63
4981;BME280;2507;50.392;7.482;2023-10-19T01:59:51;98799.34;;;14.36;82.33
4981;BME280;2507;50.392;7.482;2023-10-19T02:02:16;98793.47;;;14.48;82.38
4981;BME280;2507;50.392;7.482;2023-10-19T02:04:41;98786.38;;;14.49;82.57
4981;BME280;2507;50.392;7.482;2023-10-19T02:07:07;98790.44;;;14.51;82.29
4981;BME280;2507;50.392;7.482;2023-10-19T02:09:38;98780.19;;;14.56;82.04
4981;BME280;2507;50.392;7.482;2023-10-19T02:12:04;98779.19;;;14.57;82.25
4981;BME280;2507;50.392;7.482;2023-10-19T02:14:31;98779.13;;;14.65;81.84
4981;BME280;2507;50.392;7.482;2023-10-19T02:16:59;98771.22;;;14.80;80.64
4981;BME280;2507;50.392;7.482;2023-10-19T02:19:27;98778.69;;;14.76;80.65
4981;BME280;2507;50.392;7.482;2023-10-19T02:21:54;98772.41;;;14.77;79.95
4981;BME280;2507;50.392;7.482;2023-10-19T02:24:23;98756.81;;;14.68;80.45
4981;BME280;2507;50.392;7.482;2023-10-19T02:26:51;98762.00;;;14.61;80.45
4981;BME280;2507;50.392;7.482;2023-10-19T02:29:17;98761.34;;;14.59;80.88
4981;BME280;2507;50.392;7.482;2023-10-19T02:31:43;98759.81;;;14.65;81.05
4981;BME280;2507;50.392;7.482;2023-10-19T02:34:10;98762.19;;;14.60;80.02
4981;BME280;2507;50.392;7.482;2023-10-19T02:36:37;98764.25;;;14.50;80.32
4981;BME280;2507;50.392;7.482;2023-10-19T02:39:05;98772.13;;;14.35;81.24
4981;BME280;2507;50.392;7.482;2023-10-19T02:41:40;98769.63;;;14.11;82.95
4981;BME280;2507;50.392;7.482;2023-10-19T02:44:12;98755.91;;;13.93;84.46
4981;BME280;2507;50.392;7.482;2023-10-19T02:46:44;98767.75;;;13.97;85.08
4981;BME280;2507;50.392;7.482;2023-10-19T02:49:12;98772.75;;;14.14;84.99
4981;BME280;2507;50.392;7.482;2023-10-19T02:51:42;98767.34;;;14.08;83.97
4981;BME280;2507;50.392;7.482;2023-10-19T02:54:12;98763.94;;;14.22;83.58
4981;BME280;2507;50.392;7.482;2023-10-19T02:56:45;98760.13;;;14.24;83.17
4981;BME280;2507;50.392;7.482;2023-10-19T02:59:15;98756.22;;;14.20;82.81
4981;BME280;2507;50.392;7.482;2023-10-19T03:01:42;98747.53;;;14.12;82.48
4981;BME280;2507;50.392;7.482;2023-10-19T03:04:11;98747.00;;;14.16;82.63
4981;BME280;2507;50.392;7.482;2023-10-19T03:06:40;98748.84;;;14.16;81.77
4981;BME280;2507;50.392;7.482;2023-10-19T03:09:08;98731.00;;;14.41;81.18
4981;BME280;2507;50.392;7.482;2023-10-19T03:11:54;98745.31;;;14.01;81.51
4981;BME280;2507;50.392;7.482;2023-10-19T03:14:24;98736.00;;;13.90;82.44
4981;BME280;2507;50.392;7.482;2023-10-19T03:16:50;98745.34;;;13.93;82.41
4981;BME280;2507;50.392;7.482;2023-10-19T03:19:16;98730.59;;;13.84;82.18
4981;BME280;2507;50.392;7.482;2023-10-19T03:21:41;98721.75;;;13.77;82.35
4981;BME280;2507;50.392;7.482;2023-10-19T03:24:14;98716.13;;;13.80;82.79
4981;BME280;2507;50.392;7.482;2023-10-19T03:26:49;98704.16;;;13.69;83.09
4981;BME280;2507;50.392;7.482;2023-10-19T03:29:15;98704.41;;;13.60;84.15
4981;BME280;2507;50.392;7.482;2023-10-19T03:31:41;98723.56;;;13.46;83.62
4981;BME280;2507;50.392;7.482;2023-10-19T03:34:13;98721.59;;;13.17;86.88
4981;BME280;2507;50.392;7.482;2023-10-19T03:36:39;98739.28;;;13.31;87.76
4981;BME280;2507;50.392;7.482;2023-10-19T03:39:05;98713.41;;;13.34;87.26
4981;BME280;2507;50.392;7.482;2023-10-19T03:41:41;98709.75;;;13.44;87.19
4981;BME280;2507;50.392;7.482;2023-10-19T03:44:11;98719.78;;;13.48;86.48
4981;BME280;2507;50.392;7.482;2023-10-19T03:46:44;98700.41;;;13.64;86.61
4981;BME280;2507;50.392;7.482;2023-10-19T03:49:19;98698.78;;;13.63;86.73
4981;BME280;2507;50.392;7.482;2023-10-19T03:51:45;98688.19;;;13.71;86.74
4981;BME280;2507;50.392;7.482;2023-10-19T03:54:45;98685.66;;;13.77;86.46
4981;BME280;2507;50.392;7.482;2023-10-19T03:57:14;98684.94;;;13.61;87.40
4981;BME280;2507;50.392;7.482;2023-10-19T03:59:48;98685.38;;;13.72;88.82
4981;BME280;2507;50.392;7.482;2023-10-19T04:02:23;98677.63;;;13.93;87.25
4981;BME280;2507;50.392;7.482;2023-10-19T04:05:00;98681.09;;;13.94;86.26
4981;BME280;2507;50.392;7.482;2023-10-19T04:07:26;98674.16;;;13.93;86.30
4981;BME280;2507;50.392;7.482;2023-10-19T04:09:54;98671.53;;;13.93;87.06
4981;BME280;2507;50.392;7.482;2023-10-19T04:12:32;98674.06;;;14.09;86.88
4981;BME280;2507;50.392;7.482;2023-10-19T04:15:00;98671.03;;;14.12;85.86
4981;BME280;2507;50.392;7.482;2023-10-19T04:17:34;98665.34;;;14.23;85.79
4981;BME280;2507;50.392;7.482;2023-10-19T04:20:02;98670.09;;;14.27;85.47
4981;BME280;2507;50.392;7.482;2023-10-19T04:22:46;98670.13;;;14.42;85.27
4981;BME280;2507;50.392;7.482;2023-10-19T04:25:12;98665.22;;;14.54;85.16
4981;BME280;2507;50.392;7.482;2023-10-19T04:27:42;98655.56;;;14.46;84.76
4981;BME280;2507;50.392;7.482;2023-10-19T04:30:12;98656.47;;;14.53;85.21
4981;BME280;2507;50.392;7.482;2023-10-19T04:32:45;98656.22;;;14.63;84.67
4981;BME280;2507;50.392;7.482;2023-10-19T04:35:10;98653.75;;;14.61;84.37
4981;BME280;2507;50.392;7.482;2023-10-19T04:37:38;98666.69;;;14.71;85.00
4981;BME280;2507;50.392;7.482;2023-10-19T04:40:10;98656.03;;;14.79;84.35
4981;BME280;2507;50.392;7.482;2023-10-19T04:42:35;98651.00;;;14.69;83.23
4981;BME280;2507;50.392;7.482;2023-10-19T04:45:02;98648.81;;;14.58;84.78
4981;BME280;2507;50.392;7.482;2023-10-19T04:47:27;98649.91;;;14.64;84.94
4981;BME280;2507;50.392;7.482;2023-10-19T04:49:53;98656.66;;;14.66;84.94
4981;BME280;2507;50.392;7.482;2023-10-19T04:52:18;98648.66;;;14.74;84.98
4981;BME280;2507;50.392;7.482;2023-10-19T04:54:43;98651.84;;;14.84;84.98
4981;BME280;2507;50.392;7.482;2023-10-19T04:57:09;98646.09;;;14.95;84.61
4981;BME280;2507;50.392;7.482;2023-10-19T04:59:36;98647.81;;;15.03;84.13
4981;BME280;2507;50.392;7.482;2023-10-19T05:02:01;98641.84;;;14.80;83.53
4981;BME280;2507;50.392;7.482;2023-10-19T05:04:27;98653.31;;;14.58;84.82
4981;BME280;2507;50.392;7.482;2023-10-19T05:06:53;98655.66;;;14.38;85.19
4981;BME280;2507;50.392;7.482;2023-10-19T05:09:18;98656.31;;;14.17;86.94
4981;BME280;2507;50.392;7.482;2023-10-19T05:11:44;98657.00;;;13.97;88.34
4981;BME280;2507;50.392;7.482;2023-10-19T05:14:11;98660.47;;;13.97;89.65
4981;BME280;2507;50.392;7.482;2023-10-19T05:16:39;98653.41;;;14.12;88.85
4981;BME280;2507;50.392;7.482;2023-10-19T05:19:04;98658.47;;;14.37;87.73
4981;BME280;2507;50.392;7.482;2023-10-19T05:21:30;98653.03;;;14.38;86.41
4981;BME280;2507;50.392;7.482;2023-10-19T05:23:55;98653.31;;;14.43;85.96
4981;BME280;2507;50.392;7.482;2023-10-19T05:26:20;98660.19;;;14.44;85.51
4981;BME280;2507;50.392;7.482;2023-10-19T05:28:45;98648.66;;;14.45;85.78
4981;BME280;2507;50.392;7.482;2023-10-19T05:31:12;98654.47;;;14.55;84.53
4981;BME280;2507;50.392;7.482;2023-10-19T05:33:37;98655.31;;;14.56;84.86
4981;BME280;2507;50.392;7.482;2023-10-19T05:36:03;98655.75;;;14.59;84.44
4981;BME280;2507;50.392;7.482;2023-10-19T05:38:28;98657.38;;;14.60;84.32
4981;BME280;2507;50.392;7.482;2023-10-19T05:40:56;98660.78;;;14.69;84.73
4981;BME280;2507;50.392;7.482;2023-10-19T05:43:22;98664.84;;;14.71;83.55
4981;BME280;2507;50.392;7.482;2023-10-19T05:45:47;98669.16;;;14.72;83.84
4981;BME280;2507;50.392;7.482;2023-10-19T05:48:15;98656.03;;;14.50;85.28
4981;BME280;2507;50.392;7.482;2023-10-19T05:50:41;98657.50;;;14.67;85.52
4981;BME280;2507;50.392;7.482;2023-10-19T05:53:07;98657.22;;;14.76;85.16
4981;BME280;2507;50.392;7.482;2023-10-19T05:55:32;98661.75;;;14.82;84.62
4981;BME280;2507;50.392;7.482;2023-10-19T05:57:59;98663.13;;;14.78;85.38
4981;BME280;2507;50.392;7.482;2023-10-19T06:00:24;98671.50;;;14.82;85.32
4981;BME280;2507;50.392;7.482;2023-10-19T06:02:52;98663.94;;;14.64;85.94
4981;BME280;2507;50.392;7.482;2023-10-19T06:05:18;98663.75;;;14.66;85.80
4981;BME280;2507;50.392;7.482;2023-10-19T06:07:45;98657.38;;;14.60;85.97
4981;BME280;2507;50.392;7.482;2023-10-19T06:10:12;98663.41;;;14.40;86.97
4981;BME280;2507;50.392;7.482;2023-10-19T06:12:42;98674.13;;;14.38;87.65
4981;BME280;2507;50.392;7.482;2023-10-19T06:15:08;98671.97;;;14.56;87.28
4981;BME280;2507;50.392;7.482;2023-10-19T06:17:36;98670.59;;;14.75;85.97
4981;BME280;2507;50.392;7.482;2023-10-19T06:20:01;98662.84;;;14.73;85.02
4981;BME280;2507;50.392;7.482;2023-10-19T06:22:26;98663.69;;;14.74;84.73
4981;BME280;2507;50.392;7.482;2023-10-19T06:24:53;98663.94;;;14.79;85.13
4981;BME280;2507;50.392;7.482;2023-10-19T06:27:18;98665.75;;;14.78;85.17
4981;BME280;2507;50.392;7.482;2023-10-19T06:29:44;98670.31;;;14.84;85.49
4981;BME280;2507;50.392;7.482;2023-10-19T06:32:09;98671.22;;;14.91;85.27
4981;BME280;2507;50.392;7.482;2023-10-19T06:34:34;98667.22;;;14.95;85.27
4981;BME280;2507;50.392;7.482;2023-10-19T06:37:00;98680.34;;;15.03;84.75
4981;BME280;2507;50.392;7.482;2023-10-19T06:39:26;98682.34;;;15.01;85.07
4981;BME280;2507;50.392;7.482;2023-10-19T06:41:52;98671.41;;;15.04;84.34
4981;BME280;2507;50.392;7.482;2023-10-19T06:44:17;98674.22;;;15.03;84.21
4981;BME280;2507;50.392;7.482;2023-10-19T06:46:43;98672.94;;;14.99;84.89
4981;BME280;2507;50.392;7.482;2023-10-19T06:49:11;98667.94;;;15.04;84.88
4981;BME280;2507;50.392;7.482;2023-10-19T06:51:36;98667.09;;;15.18;84.51
4981;BME280;2507;50.392;7.482;2023-10-19T06:54:02;98674.47;;;15.22;84.23
4981;BME280;2507;50.392;7.482;2023-10-19T06:56:28;98678.25;;;15.34;84.39
4981;BME280;2507;50.392;7.482;2023-10-19T06:58:53;98679.91;;;15.35;83.67
4981;BME280;2507;50.392;7.482;2023-10-19T07:01:18;98680.56;;;15.23;83.99
4981;BME280;2507;50.392;7.482;2023-10-19T07:03:48;98677.31;;;15.06;84.29
4981;BME280;2507;50.392;7.482;2023-10-19T07:06:13;98675.53;;;14.92;84.86
4981;BME280;2507;50.392;7.482;2023-10-19T07:08:39;98687.88;;;15.06;85.74
4981;BME280;2507;50.392;7.482;2023-10-19T07:11:06;98690.69;;;15.19;85.02
4981;BME280;2507;50.392;7.482;2023-10-19T07:13:32;98691.13;;;15.38;84.58
4981;BME280;2507;50.392;7.482;2023-10-19T07:15:58;98690.97;;;15.60;83.88
4981;BME280;2507;50.392;7.482;2023-10-19T07:18:24;98703.25;;;15.68;82.94
4981;BME280;2507;50.392;7.482;2023-10-19T07:20:49;98691.44;;;15.85;83.11
4981;BME280;2507;50.392;7.482;2023-10-19T07:23:14;98693.59;;;15.96;82.12
4981;BME280;2507;50.392;7.482;2023-10-19T07:25:52;98690.78;;;16.04;80.98
4981;BME280;2507;50.392;7.482;2023-10-19T07:28:20;98689.41;;;16.08;80.87
4981;BME280;2507;50.392;7.482;2023-10-19T07:30:46;98694.81;;;16.21;80.95
4981;BME280;2507;50.392;7.482;2023-10-19T07:33:12;98701.41;;;16.31;79.88
4981;BME280;2507;50.392;7.482;2023-10-19T07:35:46;98698.00;;;16.38;79.82
4981;BME280;2507;50.392;7.482;2023-10-19T07:38:15;98695.53;;;16.57;79.32
4981;BME280;2507;50.392;7.482;2023-10-19T07:40:42;98704.44;;;16.50;79.15
4981;BME280;2507;50.392;7.482;2023-10-19T07:43:09;98715.69;;;16.58;79.47
4981;BME280;2507;50.392;7.482;2023-10-19T07:45:35;98703.19;;;16.73;79.26
4981;BME280;2507;50.392;7.482;2023-10-19T07:48:02;98697.31;;;16.78;78.70
4981;BME280;2507;50.392;7.482;2023-10-19T07:50:32;98693.06;;;16.83;78.38
4981;BME280;2507;50.392;7.482;2023-10-19T07:52:58;98694.53;;;16.92;77.99
4981;BME280;2507;50.392;7.482;2023-10-19T07:55:23;98699.78;;;16.86;77.95
4981;BME280;2507;50.392;7.482;2023-10-19T07:57:50;98691.06;;;16.58;78.26
4981;BME280;2507;50.392;7.482;2023-10-19T08:00:15;98687.19;;;16.60;79.82
4981;BME280;2507;50.392;7.482;2023-10-19T08:02:42;98680.81;;;16.82;79.77
4981;BME280;2507;50.392;7.482;2023-10-19T08:05:10;98677.28;;;17.09;78.63
4981;BME280;2507;50.392;7.482;2023-10-19T08:07:37;98665.53;;;17.31;77.29
4981;BME280;2507;50.392;7.482;2023-10-19T08:10:05;98664.50;;;17.19;76.47
4981;BME280;2507;50.392;7.482;2023-10-19T08:12:31;98672.44;;;17.19;76.47
4981;BME280;2507;50.392;7.482;2023-10-19T08:14:58;98708.03;;;17.45;76.47
4981;BME280;2507;50.392;7.482;2023-10-19T08:17:23;98671.50;;;17.47;75.59
4981;BME280;2507;50.392;7.482;2023-10-19T08:19:48;98660.16;;;17.66;76.34
4981;BME280;2507;50.392;7.482;2023-10-19T08:22:14;98664.88;;;17.70;76.13
4981;BME280;2507;50.392;7.482;2023-10-19T08:24:40;98656.13;;;17.76;74.87
4981;BME280;2507;50.392;7.482;2023-10-19T08:27:08;98668.97;;;17.79;74.51
4981;BME280;2507;50.392;7.482;2023-10-19T08:29:36;98655.19;;;17.43;74.88
4981;BME280;2507;50.392;7.482;2023-10-19T08:32:01;98654.66;;;17.13;76.71
4981;BME280;2507;50.392;7.482;2023-10-19T08:34:27;98659.03;;;17.34;78.27
4981;BME280;2507;50.392;7.482;2023-10-19T08:36:54;98654.25;;;17.70;75.84
4981;BME280;2507;50.392;7.482;2023-10-19T08:39:20;98667.97;;;18.06;75.24
4981;BME280;2507;50.392;7.482;2023-10-19T08:41:45;98648.59;;;18.45;73.28
4981;BME280;2507;50.392;7.482;2023-10-19T08:44:13;98650.22;;;18.53;73.53
4981;BME280;2507;50.392;7.482;2023-10-19T08:46:43;98650.97;;;18.79;72.36
4981;BME280;2507;50.392;7.482;2023-10-19T08:49:10;98648.13;;;18.74;70.94
4981;BME280;2507;50.392;7.482;2023-10-19T08:51:37;98640.41;;;18.47;71.51
4981;BME280;2507;50.392;7.482;2023-10-19T08:54:04;98643.22;;;18.38;72.86
4981;BME280;2507;50.392;7.482;2023-10-19T08:56:31;98654.31;;;18.49;73.22
4981;BME280;2507;50.392;7.482;2023-10-19T08:58:58;98646.09;;;18.63;73.26
4981;BME280;2507;50.392;7.482;2023-10-19T09:01:23;98643.41;;;18.70;73.08
4981;BME280;2507;50.392;7.482;2023-10-19T09:03:50;98632.09;;;18.87;72.14
4981;BME280;2507;50.392;7.482;2023-10-19T09:06:15;98627.78;;;18.99;72.04
4981;BME280;2507;50.392;7.482;2023-10-19T09:08:41;98610.31;;;19.16;72.10
4981;BME280;2507;50.392;7.482;2023-10-19T09:11:10;98610.63;;;19.40;69.96
4981;BME280;2507;50.392;7.482;2023-10-19T09:13:48;98603.13;;;19.61;69.91
4981;BME280;2507;50.392;7.482;2023-10-19T09:16:19;98605.25;;;19.53;69.55
4981;BME280;2507;50.392;7.482;2023-10-19T09:18:47;98600.31;;;19.56;70.02
4981;BME280;2507;50.392;7.482;2023-10-19T09:21:17;98586.72;;;19.64;70.10
4981;BME280;2507;50.392;7.482;2023-10-19T09:23:54;98594.56;;;19.84;68.44
4981;BME280;2507;50.392;7.482;2023-10-19T09:26:21;98597.91;;;19.73;67.99
4981;BME280;2507;50.392;7.482;2023-10-19T09:28:48;98603.28;;;19.66;68.47
4981;BME280;2507;50.392;7.482;2023-10-19T09:31:13;98595.69;;;19.70;69.11
4981;BME280;2507;50.392;7.482;2023-10-19T09:33:45;98592.34;;;19.81;69.41
4981;BME280;2507;50.392;7.482;2023-10-19T09:36:12;98591.13;;;19.77;70.96
4981;BME280;2507;50.392;7.482;2023-10-19T09:38:59;98593.31;;;19.86;71.35
4981;BME280;2507;50.392;7.482;2023-10-19T09:41:24;98586.47;;;19.97;70.69
4981;BME280;2507;50.392;7.482;2023-10-19T09:43:58;98581.59;;;20.37;70.00
4981;BME280;2507;50.392;7.482;2023-10-19T09:46:31;98582.38;;;20.80;68.27
4981;BME280;2507;50.392;7.482;2023-10-19T09:48:56;98588.50;;;20.80;68.17
4981;BME280;2507;50.392;7.482;2023-10-19T09:51:23;98584.13;;;20.86;67.56
4981;BME280;2507;50.392;7.482;2023-10-19T09:54:04;98587.75;;;20.91;67.51
4981;BME280;2507;50.392;7.482;2023-10-19T09:56:42;98580.88;;;21.20;67.22
4981;BME280;2507;50.392;7.482;2023-10-19T09:59:33;98582.97;;;21.59;65.80
4981;BME280;2507;50.392;7.482;2023-10-19T10:02:11;98576.47;;;21.78;63.90
4981;BME280;2507;50.392;7.482;2023-10-19T10:04:40;98580.44;;;21.76;62.86
4981;BME280;2507;50.392;7.482;2023-10-19T10:07:07;98579.56;;;21.52;63.08
4981;BME280;2507;50.392;7.482;2023-10-19T10:09:35;98575.56;;;21.31;63.69
4981;BME280;2507;50.392;7.482;2023-10-19T10:12:25;98570.34;;;21.37;63.29
4981;BME280;2507;50.392;7.482;2023-10-19T10:15:01;98567.91;;;21.35;63.19
4981;BME280;2507;50.392;7.482;2023-10-19T10:17:28;98561.72;;;21.53;62.93
4981;BME280;2507;50.392;7.482;2023-10-19T10:19:55;98568.72;;;21.65;62.23
4981;BME280;2507;50.392;7.482;2023-10-19T10:22:22;98566.50;;;21.74;62.46
4981;BME280;2507;50.392;7.482;2023-10-19T10:24:53;98564.69;;;21.86;62.09
4981;BME280;2507;50.392;7.482;2023-10-19T10:27:20;98571.19;;;22.13;61.68
4981;BME280;2507;50.392;7.482;2023-10-19T10:29:59;98568.19;;;22.09;60.49
4981;BME280;2507;50.392;7.482;2023-10-19T10:32:51;98567.47;;;22.25;60.65
4981;BME280;2507;50.392;7.482;2023-10-19T10:38:02;98559.22;;;22.39;59.86
4981;BME280;2507;50.392;7.482;2023-10-19T10:40:29;98564.34;;;22.40;59.64
4981;BME280;2507;50.392;7.482;2023-10-19T10:43:06;98570.63;;;22.57;59.10
4981;BME280;2507;50.392;7.482;2023-10-19T10:45:32;98572.25;;;22.47;58.72
4981;BME280;2507;50.392;7.482;2023-10-19T10:47:57;98571.09;;;22.43;58.05
4981;BME280;2507;50.392;7.482;2023-10-19T10:50:27;98571.78;;;22.26;59.02
4981;BME280;2507;50.392;7.482;2023-10-19T10:52:55;98570.53;;;21.94;59.64
4981;BME280;2507;50.392;7.482;2023-10-19T10:55:23;98577.16;;;21.62;61.46
4981;BME280;2507;50.392;7.482;2023-10-19T10:57:50;98578.69;;;21.28;62.49
4981;BME280;2507;50.392;7.482;2023-10-19T11:00:16;98565.59;;;21.39;62.81
4981;BME280;2507;50.392;7.482;2023-10-19T11:02:44;98562.66;;;21.70;61.49
4981;BME280;2507;50.392;7.482;2023-10-19T11:05:13;98568.09;;;21.52;61.76
4981;BME280;2507;50.392;7.482;2023-10-19T11:08:02;98564.88;;;21.31;62.31
4981;BME280;2507;50.392;7.482;2023-10-19T11:10:29;98562.72;;;21.10;62.44
4981;BME280;2507;50.392;7.482;2023-10-19T11:13:05;98553.53;;;21.06;63.41
4981;BME280;2507;50.392;7.482;2023-10-19T11:15:31;98543.88;;;21.23;62.51
4981;BME280;2507;50.392;7.482;2023-10-19T11:17:58;98542.63;;;21.38;61.80
4981;BME280;2507;50.392;7.482;2023-10-19T11:20:25;98530.88;;;21.27;62.04
4981;BME280;2507;50.392;7.482;2023-10-19T11:22:53;98529.53;;;21.36;61.97
4981;BME280;2507;50.392;7.482;2023-10-19T11:25:22;98530.78;;;21.33;62.73
4981;BME280;2507;50.392;7.482;2023-10-19T11:27:47;98539.84;;;21.33;62.32
4981;BME280;2507;50.392;7.482;2023-10-19T11:30:13;98535.81;;;21.42;61.92
4981;BME280;2507;50.392;7.482;2023-10-19T11:32:47;98534.59;;;21.79;61.28
4981;BME280;2507;50.392;7.482;2023-10-19T11:35:12;98539.84;;;21.85;60.07
4981;BME280;2507;50.392;7.482;2023-10-19T11:37:50;98540.06;;;21.95;60.43
4981;BME280;2507;50.392;7.482;2023-10-19T11:40:20;98554.03;;;21.97;60.31
4981;BME280;2507;50.392;7.482;2023-10-19T11:42:45;98562.06;;;22.09;60.43
4981;BME280;2507;50.392;7.482;2023-10-19T11:45:10;98545.31;;;22.25;59.80
4981;BME280;2507;50.392;7.482;2023-10-19T11:47:37;98543.44;;;22.14;59.71
4981;BME280;2507;50.392;7.482;2023-10-19T11:50:03;98541.34;;;22.04;59.68
4981;BME280;2507;50.392;7.482;2023-10-19T11:52:28;98530.91;;;21.80;60.42
4981;BME280;2507;50.392;7.482;2023-10-19T11:54:55;98533.41;;;21.63;60.96
4981;BME280;2507;50.392;7.482;2023-10-19T11:57:20;98522.69;;;21.52;60.84
4981;BME280;2507;50.392;7.482;2023-10-19T11:59:46;98526.25;;;21.34;61.82
4981;BME280;2507;50.392;7.482;2023-10-19T12:02:17;98519.31;;;21.45;61.60
4981;BME280;2507;50.392;7.482;2023-10-19T12:04:44;98538.13;;;21.38;62.93
4981;BME280;2507;50.392;7.482;2023-10-19T12:07:10;98533.50;;;21.57;61.63
4981;BME280;2507;50.392;7.482;2023-10-19T12:09:35;98536.88;;;21.64;61.54
4981;BME280;2507;50.392;7.482;2023-10-19T12:12:01;98520.50;;;21.60;60.55
4981;BME280;2507;50.392;7.482;2023-10-19T12:14:28;98524.91;;;21.55;60.95
4981;BME280;2507;50.392;7.482;2023-10-19T12:16:54;98532.44;;;21.46;61.12
4981;BME280;2507;50.392;7.482;2023-10-19T12:19:19;98526.09;;;21.17;62.29
4981;BME280;2507;50.392;7.482;2023-10-19T12:21:44;98521.41;;;21.01;63.21
4981;BME280;2507;50.392;7.482;2023-10-19T12:24:10;98527.78;;;20.82;63.97
4981;BME280;2507;50.392;7.482;2023-10-19T12:26:36;98517.47;;;20.86;63.84
4981;BME280;2507;50.392;7.482;2023-10-19T12:29:01;98519.50;;;20.72;64.56
4981;BME280;2507;50.392;7.482;2023-10-19T12:31:29;98528.47;;;20.60;64.41
4981;BME280;2507;50.392;7.482;2023-10-19T12:33:55;98522.63;;;20.33;66.11
4981;BME280;2507;50.392;7.482;2023-10-19T12:36:21;98521.44;;;20.29;66.21
4981;BME280;2507;50.392;7.482;2023-10-19T12:38:50;98512.78;;;20.33;66.22
4981;BME280;2507;50.392;7.482;2023-10-19T12:41:16;98509.97;;;20.28;66.30
4981;BME280;2507;50.392;7.482;2023-10-19T12:43:42;98517.25;;;20.15;67.51
4981;BME280;2507;50.392;7.482;2023-10-19T12:46:07;98524.72;;;20.06;68.01
4981;BME280;2507;50.392;7.482;2023-10-19T12:48:34;98526.72;;;20.11;68.87
4981;BME280;2507;50.392;7.482;2023-10-19T12:51:00;98529.44;;;20.04;68.84
4981;BME280;2507;50.392;7.482;2023-10-19T12:53:27;98525.25;;;20.15;68.10
4981;BME280;2507;50.392;7.482;2023-10-19T12:55:52;98513.66;;;20.27;68.30
4981;BME280;2507;50.392;7.482;2023-10-19T12:58:18;98503.38;;;20.31;67.80
4981;BME280;2507;50.392;7.482;2023-10-19T13:00:46;98506.03;;;20.49;67.54
4981;BME280;2507;50.392;7.482;2023-10-19T13:03:14;98498.19;;;20.54;66.55
4981;BME280;2507;50.392;7.482;2023-10-19T13:05:40;98500.19;;;20.41;67.57
4981;BME280;2507;50.392;7.482;2023-10-19T13:08:07;98489.44;;;20.65;67.97
4981;BME280;2507;50.392;7.482;2023-10-19T13:10:33;98492.44;;;20.87;67.06
4981;BME280;2507;50.392;7.482;2023-10-19T13:13:03;98486.72;;;21.01;65.61
4981;BME280;2507;50.392;7.482;2023-10-19T13:15:35;98492.84;;;21.02;66.38
4981;BME280;2507;50.392;7.482;2023-10-19T13:18:02;98483.13;;;21.07;66.30
4981;BME280;2507;50.392;7.482;2023-10-19T13:20:28;98477.47;;;21.15;66.04
4981;BME280;2507;50.392;7.482;2023-10-19T13:23:04;98476.81;;;21.20;65.05
4981;BME280;2507;50.392;7.482;2023-10-19T13:25:33;98479.91;;;21.05;65.20
4981;BME280;2507;50.392;7.482;2023-10-19T13:28:10;98481.19;;;20.96;64.62
4981;BME280;2507;50.392;7.482;2023-10-19T13:30:41;98474.06;;;20.79;64.98
4981;BME280;2507;50.392;7.482;2023-10-19T13:33:07;98478.50;;;20.55;66.00